sensor_id;sensor_type;location;lat;lon;timestamp;pressure;altitude;pressure_sealevel;temperature;humidity
60015;BME280;45867;52.480;6.056;2023-04-30T00:00:00;102371.03;;;8.32;100.00
60015;BME280;45867;52.480;6.056;2023-04-30T00:02:29;102360.47;;;8.32;100.00
60015;BME280;45867;52.480;6.056;2023-04-30T00:05:00;102382.56;;;8.37;100.00
60015;BME280;45867;52.480;6.056;2023-04-30T00:07:28;102388.69;;;8.38;100.00
60015;BME280;45867;52.480;6.056;2023-04-30T00:09:56;102375.06;;;8.34;100.00
60015;BME280;45867;52.480;6.056;2023-04-30T00:12:43;102372.66;;;8.33;100.00
60015;BME280;45867;52.480;6.056;2023-04-30T00:15:21;102399.22;;;8.44;100.00
60015;BME280;45867;52.480;6.056;2023-04-30T00:17:54;102398.06;;;8.40;100.00
60015;BME280;45867;52.480;6.056;2023-04-30T00:20:52;102379.97;;;8.31;100.00
60015;BME280;45867;52.480;6.056;2023-04-30T00:23:29;102389.13;;;8.35;100.00
60015;BME280;45867;52.480;6.056;2023-04-30T00:26:00;102397.63;;;8.37;100.00
60015;BME280;45867;52.480;6.056;2023-04-30T00:28:28;102388.28;;;8.34;100.00
60015;BME280;45867;52.480;6.056;2023-04-30T00:30:56;102382.56;;;8.44;100.00
60015;BME280;45867;52.480;6.056;2023-04-30T00:33:24;102387.47;;;8.34;100.00
60015;BME280;45867;52.480;6.056;2023-04-30T00:35:56;102389.50;;;8.32;100.00
60015;BME280;45867;52.480;6.056;2023-04-30T00:38:30;102383.25;;;8.26;100.00
60015;BME280;45867;52.480;6.056;2023-04-30T00:41:42;102392.00;;;8.27;100.00
60015;BME280;45867;52.480;6.056;2023-04-30T00:44:16;102381.84;;;8.23;100.00
60015;BME280;45867;52.480;6.056;2023-04-30T00:46:48;102389.56;;;8.25;100.00
60015;BME280;45867;52.480;6.056;2023-04-30T00:49:57;102382.94;;;8.09;100.00
60015;BME280;45867;52.480;6.056;2023-04-30T00:52:46;102384.34;;;8.12;100.00
60015;BME280;45867;52.480;6.056;2023-04-30T00:55:14;102377.72;;;7.96;100.00
60015;BME280;45867;52.480;6.056;2023-04-30T00:57:41;102387.50;;;7.89;100.00
60015;BME280;45867;52.480;6.056;2023-04-30T01:00:10;102389.31;;;7.95;100.00
60015;BME280;45867;52.480;6.056;2023-04-30T01:02:36;102383.03;;;7.83;100.00
60015;BME280;45867;52.480;6.056;2023-04-30T01:05:02;102410.03;;;7.91;100.00
60015;BME280;45867;52.480;6.056;2023-04-30T01:07:32;102413.09;;;7.82;100.00
60015;BME280;45867;52.480;6.056;2023-04-30T01:10:09;102393.09;;;7.54;100.00
60015;BME280;45867;52.480;6.056;2023-04-30T01:13:17;102400.00;;;7.48;100.00
60015;BME280;45867;52.480;6.056;2023-04-30T01:16:04;102402.69;;;7.35;100.00
60015;BME280;45867;52.480;6.056;2023-04-30T01:21:55;102397.84;;;6.92;100.00
60015;BME280;45867;52.480;6.056;2023-04-30T01:24:42;102421.16;;;6.95;100.00
60015;BME280;45867;52.480;6.056;2023-04-30T01:28:02;102396.41;;;6.70;100.00
60015;BME280;45867;52.480;6.056;2023-04-30T01:30:43;102419.72;;;6.73;100.00
60015;BME280;45867;52.480;6.056;2023-04-30T01:33:12;102383.63;;;6.47;100.00
60015;BME280;45867;52.480;6.056;2023-04-30T01:39:21;102410.34;;;6.43;100.00
60015;BME280;45867;52.480;6.056;2023-04-30T01:42:28;102388.59;;;6.15;100.00
60015;BME280;45867;52.480;6.056;2023-04-30T01:48:54;102390.69;;;5.91;100.00
60015;BME280;45867;52.480;6.056;2023-04-30T01:54:48;102403.44;;;5.81;100.00
60015;BME280;45867;52.480;6.056;2023-04-30T01:57:40;102408.41;;;5.69;100.00
60015;BME280;45867;52.480;6.056;2023-04-30T02:00:07;102385.66;;;5.48;100.00
60015;BME280;45867;52.480;6.056;2023-04-30T02:02:38;102390.28;;;5.46;100.00
60015;BME280;45867;52.480;6.056;2023-04-30T02:05:13;102384.97;;;5.40;100.00
60015;BME280;45867;52.480;6.056;2023-04-30T02:08:03;102390.47;;;5.45;100.00
60015;BME280;45867;52.480;6.056;2023-04-30T02:11:17;102390.28;;;5.46;100.00
60015;BME280;45867;52.480;6.056;2023-04-30T02:14:05;102389.19;;;5.34;100.00
60015;BME280;45867;52.480;6.056;2023-04-30T02:16:38;102403.53;;;5.31;100.00
60015;BME280;45867;52.480;6.056;2023-04-30T02:19:33;102419.75;;;5.35;100.00
60015;BME280;45867;52.480;6.056;2023-04-30T02:22:16;102403.72;;;5.30;100.00
60015;BME280;45867;52.480;6.056;2023-04-30T02:27:24;102394.06;;;5.09;100.00
60015;BME280;45867;52.480;6.056;2023-04-30T02:29:59;102398.09;;;5.05;100.00
60015;BME280;45867;52.480;6.056;2023-04-30T02:32:43;102391.72;;;4.93;100.00
60015;BME280;45867;52.480;6.056;2023-04-30T02:35:17;102411.31;;;5.18;100.00
60015;BME280;45867;52.480;6.056;2023-04-30T02:38:02;102396.97;;;5.21;100.00
60015;BME280;45867;52.480;6.056;2023-04-30T02:40:33;102385.88;;;5.19;100.00
60015;BME280;45867;52.480;6.056;2023-04-30T02:43:19;102410.22;;;5.34;100.00
60015;BME280;45867;52.480;6.056;2023-04-30T02:45:53;102385.66;;;5.20;100.00
60015;BME280;45867;52.480;6.056;2023-04-30T02:48:22;102407.59;;;5.34;100.00
60015;BME280;45867;52.480;6.056;2023-04-30T02:51:01;102399.81;;;5.19;100.00
60015;BME280;45867;52.480;6.056;2023-04-30T02:53:29;102406.28;;;5.23;100.00
60015;BME280;45867;52.480;6.056;2023-04-30T02:56:04;102383.81;;;5.14;100.00
60015;BME280;45867;52.480;6.056;2023-04-30T02:58:35;102395.69;;;5.10;100.00
60015;BME280;45867;52.480;6.056;2023-04-30T03:01:06;102376.38;;;4.96;100.00
60015;BME280;45867;52.480;6.056;2023-04-30T03:04:02;102383.31;;;5.04;100.00
60015;BME280;45867;52.480;6.056;2023-04-30T03:10:33;102367.44;;;4.90;100.00
60015;BME280;45867;52.480;6.056;2023-04-30T03:13:57;102349.66;;;4.86;100.00
60015;BME280;45867;52.480;6.056;2023-04-30T03:16:29;102338.25;;;4.79;100.00
60015;BME280;45867;52.480;6.056;2023-04-30T03:22:53;102366.84;;;4.88;100.00
60015;BME280;45867;52.480;6.056;2023-04-30T03:25:21;102350.72;;;4.70;100.00
60015;BME280;45867;52.480;6.056;2023-04-30T03:27:55;102347.44;;;4.61;100.00
60015;BME280;45867;52.480;6.056;2023-04-30T03:30:26;102343.38;;;4.59;100.00
60015;BME280;45867;52.480;6.056;2023-04-30T03:33:12;102355.31;;;4.61;100.00
60015;BME280;45867;52.480;6.056;2023-04-30T03:35:59;102349.28;;;4.46;100.00
60015;BME280;45867;52.480;6.056;2023-04-30T03:39:11;102350.06;;;4.40;100.00
60015;BME280;45867;52.480;6.056;2023-04-30T03:42:21;102344.13;;;4.31;100.00
60015;BME280;45867;52.480;6.056;2023-04-30T03:44:46;102358.91;;;4.39;100.00
60015;BME280;45867;52.480;6.056;2023-04-30T03:47:35;102347.47;;;4.25;100.00
60015;BME280;45867;52.480;6.056;2023-04-30T03:50:09;102342.03;;;4.27;100.00
60015;BME280;45867;52.480;6.056;2023-04-30T03:52:40;102358.31;;;4.37;100.00
60015;BME280;45867;52.480;6.056;2023-04-30T03:55:12;102344.03;;;4.25;100.00
60015;BME280;45867;52.480;6.056;2023-04-30T03:57:40;102358.59;;;4.27;100.00
60015;BME280;45867;52.480;6.056;2023-04-30T04:00:14;102339.91;;;4.15;100.00
60015;BME280;45867;52.480;6.056;2023-04-30T04:03:17;102362.09;;;4.34;100.00
60015;BME280;45867;52.480;6.056;2023-04-30T04:05:47;102335.91;;;4.19;100.00
60015;BME280;45867;52.480;6.056;2023-04-30T04:08:21;102346.84;;;4.23;100.00
60015;BME280;45867;52.480;6.056;2023-04-30T04:11:15;102334.19;;;4.12;100.00
60015;BME280;45867;52.480;6.056;2023-04-30T04:14:18;102340.16;;;4.20;100.00
60015;BME280;45867;52.480;6.056;2023-04-30T04:16:44;102337.47;;;4.14;100.00
60015;BME280;45867;52.480;6.056;2023-04-30T04:22:17;102357.16;;;4.25;100.00
60015;BME280;45867;52.480;6.056;2023-04-30T04:24:45;102339.09;;;4.15;100.00
60015;BME280;45867;52.480;6.056;2023-04-30T04:27:16;102359.41;;;4.28;100.00
60015;BME280;45867;52.480;6.056;2023-04-30T04:29:42;102347.19;;;4.20;100.00
60015;BME280;45867;52.480;6.056;2023-04-30T04:32:08;102354.72;;;4.23;100.00
60015;BME280;45867;52.480;6.056;2023-04-30T04:34:34;102350.09;;;4.25;100.00
60015;BME280;45867;52.480;6.056;2023-04-30T04:37:00;102354.91;;;4.21;100.00
60015;BME280;45867;52.480;6.056;2023-04-30T04:39:25;102358.41;;;4.29;100.00
60015;BME280;45867;52.480;6.056;2023-04-30T04:41:54;102359.66;;;4.33;100.00
60015;BME280;45867;52.480;6.056;2023-04-30T04:44:33;102347.16;;;4.35;100.00
60015;BME280;45867;52.480;6.056;2023-04-30T04:50:24;102347.69;;;4.45;100.00
60015;BME280;45867;52.480;6.056;2023-04-30T04:52:55;102343.50;;;4.51;100.00
60015;BME280;45867;52.480;6.056;2023-04-30T04:55:43;102358.84;;;4.54;100.00
60015;BME280;45867;52.480;6.056;2023-04-30T04:58:14;102365.22;;;4.66;100.00
60015;BME280;45867;52.480;6.056;2023-04-30T05:00:43;102356.66;;;4.57;100.00
60015;BME280;45867;52.480;6.056;2023-04-30T05:03:27;102353.66;;;4.60;100.00
60015;BME280;45867;52.480;6.056;2023-04-30T05:11:46;102367.38;;;5.05;100.00
60015;BME280;45867;52.480;6.056;2023-04-30T05:14:20;102378.38;;;5.16;100.00
60015;BME280;45867;52.480;6.056;2023-04-30T05:16:51;102371.28;;;5.16;100.00
60015;BME280;45867;52.480;6.056;2023-04-30T05:19:23;102379.28;;;5.36;100.00
60015;BME280;45867;52.480;6.056;2023-04-30T05:22:20;102377.41;;;5.58;100.00
60015;BME280;45867;52.480;6.056;2023-04-30T05:25:08;102375.28;;;5.82;100.00
60015;BME280;45867;52.480;6.056;2023-04-30T05:28:36;102390.88;;;6.38;100.00
60015;BME280;45867;52.480;6.056;2023-04-30T05:31:01;102396.97;;;6.45;100.00
60015;BME280;45867;52.480;6.056;2023-04-30T05:33:38;102368.41;;;6.49;100.00
60015;BME280;45867;52.480;6.056;2023-04-30T05:36:05;102375.94;;;6.98;100.00
60015;BME280;45867;52.480;6.056;2023-04-30T05:38:33;102376.50;;;7.40;100.00
60015;BME280;45867;52.480;6.056;2023-04-30T05:41:10;102376.16;;;7.82;100.00
60015;BME280;45867;52.480;6.056;2023-04-30T05:43:35;102386.72;;;8.27;100.00
60015;BME280;45867;52.480;6.056;2023-04-30T05:46:07;102368.13;;;8.47;100.00
60015;BME280;45867;52.480;6.056;2023-04-30T05:48:32;102383.72;;;8.55;100.00
60015;BME280;45867;52.480;6.056;2023-04-30T05:50:57;102384.16;;;8.77;100.00
60015;BME280;45867;52.480;6.056;2023-04-30T05:53:54;102392.31;;;9.00;100.00
60015;BME280;45867;52.480;6.056;2023-04-30T05:56:21;102408.44;;;9.17;100.00
60015;BME280;45867;52.480;6.056;2023-04-30T05:58:53;102425.09;;;9.43;100.00
60015;BME280;45867;52.480;6.056;2023-04-30T06:01:21;102414.31;;;9.19;100.00
60015;BME280;45867;52.480;6.056;2023-04-30T06:03:51;102422.06;;;9.39;100.00
60015;BME280;45867;52.480;6.056;2023-04-30T06:06:19;102425.75;;;9.93;100.00
60015;BME280;45867;52.480;6.056;2023-04-30T06:08:50;102443.88;;;10.27;100.00
60015;BME280;45867;52.480;6.056;2023-04-30T06:11:15;102446.09;;;10.60;100.00
60015;BME280;45867;52.480;6.056;2023-04-30T06:13:41;102452.25;;;10.42;100.00
60015;BME280;45867;52.480;6.056;2023-04-30T06:16:06;102457.56;;;10.42;100.00
60015;BME280;45867;52.480;6.056;2023-04-30T06:18:32;102454.81;;;10.91;100.00
60015;BME280;45867;52.480;6.056;2023-04-30T06:21:09;102456.69;;;11.02;100.00
60015;BME280;45867;52.480;6.056;2023-04-30T06:23:40;102466.78;;;10.70;100.00
60015;BME280;45867;52.480;6.056;2023-04-30T06:26:05;102455.47;;;10.74;100.00
60015;BME280;45867;52.480;6.056;2023-04-30T06:28:31;102438.16;;;10.60;100.00
60015;BME280;45867;52.480;6.056;2023-04-30T06:30:56;102458.72;;;10.88;100.00
60015;BME280;45867;52.480;6.056;2023-04-30T06:33:22;102477.25;;;11.42;100.00
60015;BME280;45867;52.480;6.056;2023-04-30T06:35:47;102481.88;;;11.58;100.00
60015;BME280;45867;52.480;6.056;2023-04-30T06:38:15;102479.88;;;11.77;100.00
60015;BME280;45867;52.480;6.056;2023-04-30T06:40:42;102463.22;;;12.05;100.00
60015;BME280;45867;52.480;6.056;2023-04-30T06:43:07;102474.34;;;12.31;100.00
60015;BME280;45867;52.480;6.056;2023-04-30T06:45:33;102480.56;;;12.65;100.00
60015;BME280;45867;52.480;6.056;2023-04-30T06:47:58;102495.78;;;12.41;100.00
60015;BME280;45867;52.480;6.056;2023-04-30T06:50:24;102490.63;;;12.34;100.00
60015;BME280;45867;52.480;6.056;2023-04-30T06:52:50;102476.56;;;12.22;100.00
60015;BME280;45867;52.480;6.056;2023-04-30T06:55:15;102479.91;;;12.58;100.00
60015;BME280;45867;52.480;6.056;2023-04-30T06:57:41;102491.47;;;13.14;100.00
60015;BME280;45867;52.480;6.056;2023-04-30T07:00:07;102498.59;;;13.42;100.00
60015;BME280;45867;52.480;6.056;2023-04-30T07:02:33;102498.09;;;12.95;100.00
60015;BME280;45867;52.480;6.056;2023-04-30T07:04:58;102488.53;;;13.27;100.00
60015;BME280;45867;52.480;6.056;2023-04-30T07:07:24;102499.41;;;13.82;100.00
60015;BME280;45867;52.480;6.056;2023-04-30T07:09:52;102505.69;;;13.37;100.00
60015;BME280;45867;52.480;6.056;2023-04-30T07:12:19;102505.28;;;13.45;100.00
60015;BME280;45867;52.480;6.056;2023-04-30T07:14:45;102489.81;;;13.64;100.00
60015;BME280;45867;52.480;6.056;2023-04-30T07:17:10;102489.78;;;13.59;100.00
60015;BME280;45867;52.480;6.056;2023-04-30T07:19:36;102497.69;;;13.53;100.00
60015;BME280;45867;52.480;6.056;2023-04-30T07:22:01;102504.84;;;14.58;100.00
60015;BME280;45867;52.480;6.056;2023-04-30T07:24:29;102491.34;;;14.20;100.00
60015;BME280;45867;52.480;6.056;2023-04-30T07:26:54;102490.94;;;14.83;100.00
60015;BME280;45867;52.480;6.056;2023-04-30T07:29:22;102509.44;;;14.95;100.00
60015;BME280;45867;52.480;6.056;2023-04-30T07:31:48;102494.31;;;15.43;100.00
60015;BME280;45867;52.480;6.056;2023-04-30T07:34:13;102523.59;;;15.27;100.00
60015;BME280;45867;52.480;6.056;2023-04-30T07:36:39;102522.78;;;14.90;100.00
60015;BME280;45867;52.480;6.056;2023-04-30T07:39:04;102511.22;;;14.35;100.00
60015;BME280;45867;52.480;6.056;2023-04-30T07:41:30;102516.88;;;15.25;100.00
60015;BME280;45867;52.480;6.056;2023-04-30T07:43:56;102511.25;;;15.59;100.00
60015;BME280;45867;52.480;6.056;2023-04-30T07:46:23;102510.84;;;16.45;100.00
60015;BME280;45867;52.480;6.056;2023-04-30T07:48:52;102498.13;;;16.05;100.00
60015;BME280;45867;52.480;6.056;2023-04-30T07:51:20;102512.03;;;16.07;100.00
60015;BME280;45867;52.480;6.056;2023-04-30T07:53:45;102515.69;;;16.74;100.00
60015;BME280;45867;52.480;6.056;2023-04-30T07:56:13;102510.09;;;16.96;100.00
60015;BME280;45867;52.480;6.056;2023-04-30T07:58:39;102519.16;;;16.74;100.00
60015;BME280;45867;52.480;6.056;2023-04-30T08:01:12;102510.09;;;16.96;100.00
60015;BME280;45867;52.480;6.056;2023-04-30T08:03:40;102513.84;;;16.79;100.00
60015;BME280;45867;52.480;6.056;2023-04-30T08:06:07;102532.88;;;17.19;100.00
60015;BME280;45867;52.480;6.056;2023-04-30T08:08:33;102519.97;;;17.51;100.00
60015;BME280;45867;52.480;6.056;2023-04-30T08:10:58;102529.19;;;18.05;99.03
60015;BME280;45867;52.480;6.056;2023-04-30T08:13:23;102520.97;;;18.41;97.16
60015;BME280;45867;52.480;6.056;2023-04-30T08:15:52;102524.75;;;17.65;96.61
60015;BME280;45867;52.480;6.056;2023-04-30T08:18:17;102528.53;;;18.73;96.78
60015;BME280;45867;52.480;6.056;2023-04-30T08:20:46;102515.34;;;18.82;93.57
60015;BME280;45867;52.480;6.056;2023-04-30T08:23:30;102536.78;;;18.87;90.54
60015;BME280;45867;52.480;6.056;2023-04-30T08:25:56;102515.94;;;19.61;86.30
60015;BME280;45867;52.480;6.056;2023-04-30T08:28:24;102528.09;;;19.83;82.12
60015;BME280;45867;52.480;6.056;2023-04-30T08:30:50;102526.44;;;20.30;81.56
60015;BME280;45867;52.480;6.056;2023-04-30T08:33:20;102535.56;;;20.10;78.63
60015;BME280;45867;52.480;6.056;2023-04-30T08:35:46;102525.38;;;19.59;79.86
60015;BME280;45867;52.480;6.056;2023-04-30T08:38:11;102521.38;;;20.04;70.52
60015;BME280;45867;52.480;6.056;2023-04-30T08:40:43;102540.41;;;20.51;69.05
60015;BME280;45867;52.480;6.056;2023-04-30T08:43:13;102519.91;;;20.74;67.69
60015;BME280;45867;52.480;6.056;2023-04-30T08:45:39;102518.69;;;21.87;61.69
60015;BME280;45867;52.480;6.056;2023-04-30T08:48:17;102520.38;;;21.97;55.93
60015;BME280;45867;52.480;6.056;2023-04-30T08:50:46;102521.38;;;21.73;52.48
60015;BME280;45867;52.480;6.056;2023-04-30T08:53:17;102533.81;;;21.27;60.47
60015;BME280;45867;52.480;6.056;2023-04-30T08:55:48;102533.88;;;21.09;53.84
60015;BME280;45867;52.480;6.056;2023-04-30T08:58:23;102514.78;;;21.05;55.81
60015;BME280;45867;52.480;6.056;2023-04-30T09:00:48;102542.88;;;21.50;55.86
60015;BME280;45867;52.480;6.056;2023-04-30T09:03:14;102520.19;;;21.65;54.72
60015;BME280;45867;52.480;6.056;2023-04-30T09:05:39;102515.59;;;21.93;50.63
60015;BME280;45867;52.480;6.056;2023-04-30T09:08:07;102516.75;;;22.74;51.48
60015;BME280;45867;52.480;6.056;2023-04-30T09:10:35;102519.72;;;23.09;47.46
60015;BME280;45867;52.480;6.056;2023-04-30T09:13:05;102518.13;;;23.87;48.32
60015;BME280;45867;52.480;6.056;2023-04-30T09:15:35;102511.97;;;24.48;46.52
60015;BME280;45867;52.480;6.056;2023-04-30T09:18:13;102532.03;;;24.38;43.56
60015;BME280;45867;52.480;6.056;2023-04-30T09:21:01;102534.53;;;23.11;45.75
60015;BME280;45867;52.480;6.056;2023-04-30T09:23:33;102516.88;;;23.54;45.90
60015;BME280;45867;52.480;6.056;2023-04-30T09:26:01;102526.28;;;24.31;45.38
60015;BME280;45867;52.480;6.056;2023-04-30T09:28:33;102521.34;;;24.07;43.71
60015;BME280;45867;52.480;6.056;2023-04-30T09:30:58;102523.75;;;24.26;43.14
60015;BME280;45867;52.480;6.056;2023-04-30T09:33:31;102506.75;;;24.98;41.48
60015;BME280;45867;52.480;6.056;2023-04-30T09:36:09;102499.34;;;25.63;41.78
60015;BME280;45867;52.480;6.056;2023-04-30T09:38:38;102498.16;;;25.43;40.03
60015;BME280;45867;52.480;6.056;2023-04-30T09:41:03;102492.84;;;25.09;40.48
60015;BME280;45867;52.480;6.056;2023-04-30T09:43:35;102507.41;;;26.23;40.66
60015;BME280;45867;52.480;6.056;2023-04-30T09:46:14;102493.66;;;25.47;39.46
60015;BME280;45867;52.480;6.056;2023-04-30T09:48:43;102493.63;;;26.07;39.11
60015;BME280;45867;52.480;6.056;2023-04-30T09:51:13;102495.56;;;26.27;37.57
60015;BME280;45867;52.480;6.056;2023-04-30T09:53:42;102485.56;;;26.19;36.26
60015;BME280;45867;52.480;6.056;2023-04-30T09:56:11;102485.41;;;26.70;37.04
60015;BME280;45867;52.480;6.056;2023-04-30T09:58:45;102486.47;;;26.02;36.07
60015;BME280;45867;52.480;6.056;2023-04-30T10:01:25;102484.38;;;26.62;37.81
60015;BME280;45867;52.480;6.056;2023-04-30T10:04:05;102472.44;;;26.88;36.76
60015;BME280;45867;52.480;6.056;2023-04-30T10:06:37;102471.31;;;27.13;35.49
60015;BME280;45867;52.480;6.056;2023-04-30T10:09:07;102479.63;;;26.38;37.00
60015;BME280;45867;52.480;6.056;2023-04-30T10:11:52;102467.53;;;25.94;36.72
60015;BME280;45867;52.480;6.056;2023-04-30T10:14:31;102463.13;;;26.76;35.74
60015;BME280;45867;52.480;6.056;2023-04-30T10:17:15;102466.69;;;26.35;35.54
60015;BME280;45867;52.480;6.056;2023-04-30T10:19:48;102477.66;;;25.55;36.89
60015;BME280;45867;52.480;6.056;2023-04-30T10:22:19;102470.88;;;26.53;36.22
60015;BME280;45867;52.480;6.056;2023-04-30T10:24:46;102455.41;;;26.45;35.68
60015;BME280;45867;52.480;6.056;2023-04-30T10:27:14;102464.50;;;26.95;35.21
60015;BME280;45867;52.480;6.056;2023-04-30T10:29:41;102460.22;;;27.31;34.66
60015;BME280;45867;52.480;6.056;2023-04-30T10:32:22;102448.31;;;27.35;34.76
60015;BME280;45867;52.480;6.056;2023-04-30T10:35:08;102454.88;;;27.10;34.60
60015;BME280;45867;52.480;6.056;2023-04-30T10:38:21;102464.97;;;28.11;33.96
60015;BME280;45867;52.480;6.056;2023-04-30T10:40:37;102447.66;;;28.19;32.30
60015;BME280;45867;52.480;6.056;2023-04-30T10:43:06;102451.53;;;26.34;35.17
60015;BME280;45867;52.480;6.056;2023-04-30T10:45:36;102448.50;;;27.06;34.76
60015;BME280;45867;52.480;6.056;2023-04-30T10:48:03;102445.84;;;27.95;34.71
60015;BME280;45867;52.480;6.056;2023-04-30T10:50:29;102439.22;;;26.82;34.95
60015;BME280;45867;52.480;6.056;2023-04-30T10:53:05;102428.94;;;27.25;36.17
60015;BME280;45867;52.480;6.056;2023-04-30T10:55:31;102447.19;;;27.24;35.57
60015;BME280;45867;52.480;6.056;2023-04-30T10:58:02;102422.56;;;27.08;36.27
60015;BME280;45867;52.480;6.056;2023-04-30T11:01:20;102430.16;;;26.45;36.27
60015;BME280;45867;52.480;6.056;2023-04-30T11:04:08;102436.13;;;26.38;36.02
60015;BME280;45867;52.480;6.056;2023-04-30T11:07:09;102434.53;;;26.58;36.28
60015;BME280;45867;52.480;6.056;2023-04-30T11:12:03;102422.06;;;27.55;36.82
60015;BME280;45867;52.480;6.056;2023-04-30T11:14:31;102439.09;;;27.52;34.69
60015;BME280;45867;52.480;6.056;2023-04-30T11:16:58;102417.69;;;27.14;35.83
60015;BME280;45867;52.480;6.056;2023-04-30T11:19:26;102410.44;;;27.42;36.61
60015;BME280;45867;52.480;6.056;2023-04-30T11:27:25;102400.22;;;28.36;35.22
60015;BME280;45867;52.480;6.056;2023-04-30T11:29:52;102380.91;;;28.73;34.84
60015;BME280;45867;52.480;6.056;2023-04-30T11:32:18;102394.91;;;29.38;32.38
60015;BME280;45867;52.480;6.056;2023-04-30T11:34:44;102387.06;;;29.95;34.06
60015;BME280;45867;52.480;6.056;2023-04-30T11:37:18;102382.38;;;29.37;32.44
60015;BME280;45867;52.480;6.056;2023-04-30T11:39:44;102380.72;;;30.11;33.07
60015;BME280;45867;52.480;6.056;2023-04-30T11:42:15;102373.13;;;29.42;33.39
60015;BME280;45867;52.480;6.056;2023-04-30T11:44:41;102383.38;;;28.46;33.68
60015;BME280;45867;52.480;6.056;2023-04-30T11:47:07;102381.53;;;29.33;34.26
60015;BME280;45867;52.480;6.056;2023-04-30T11:49:32;102370.56;;;28.19;34.67
60015;BME280;45867;52.480;6.056;2023-04-30T11:51:58;102363.50;;;28.97;33.61
60015;BME280;45867;52.480;6.056;2023-04-30T11:54:23;102350.44;;;27.14;35.57
60015;BME280;45867;52.480;6.056;2023-04-30T11:56:51;102359.53;;;28.43;34.96
60015;BME280;45867;52.480;6.056;2023-04-30T11:59:18;102353.97;;;27.67;35.89
60015;BME280;45867;52.480;6.056;2023-04-30T12:01:44;102348.38;;;26.38;36.03
60015;BME280;45867;52.480;6.056;2023-04-30T12:04:12;102361.84;;;27.85;35.70
60015;BME280;45867;52.480;6.056;2023-04-30T12:06:38;102342.63;;;27.65;35.04
60015;BME280;45867;52.480;6.056;2023-04-30T12:09:03;102337.44;;;28.64;35.08
60015;BME280;45867;52.480;6.056;2023-04-30T12:11:32;102335.72;;;29.07;34.51
60015;BME280;45867;52.480;6.056;2023-04-30T12:14:03;102327.97;;;26.31;36.49
60015;BME280;45867;52.480;6.056;2023-04-30T12:19:04;102325.50;;;26.39;38.13
60015;BME280;45867;52.480;6.056;2023-04-30T12:21:31;102326.28;;;27.37;38.64
60015;BME280;45867;52.480;6.056;2023-04-30T12:23:57;102331.09;;;26.91;37.25
60015;BME280;45867;52.480;6.056;2023-04-30T12:26:23;102334.34;;;26.35;38.45
60015;BME280;45867;52.480;6.056;2023-04-30T12:28:48;102326.03;;;26.32;37.14
60015;BME280;45867;52.480;6.056;2023-04-30T12:31:16;102335.06;;;27.18;37.51
60015;BME280;45867;52.480;6.056;2023-04-30T12:33:42;102338.59;;;26.82;37.32
60015;BME280;45867;52.480;6.056;2023-04-30T12:36:12;102320.69;;;27.46;36.61
60015;BME280;45867;52.480;6.056;2023-04-30T12:38:42;102313.19;;;26.53;37.42
60015;BME280;45867;52.480;6.056;2023-04-30T12:41:10;102308.59;;;27.31;36.68
60015;BME280;45867;52.480;6.056;2023-04-30T12:43:39;102327.59;;;27.84;37.09
60015;BME280;45867;52.480;6.056;2023-04-30T12:46:05;102301.72;;;26.48;38.11
60015;BME280;45867;52.480;6.056;2023-04-30T12:48:42;102315.34;;;26.85;37.63
60015;BME280;45867;52.480;6.056;2023-04-30T12:51:09;102326.50;;;27.73;38.72
60015;BME280;45867;52.480;6.056;2023-04-30T12:53:46;102322.94;;;26.91;38.71
60015;BME280;45867;52.480;6.056;2023-04-30T12:56:15;102309.88;;;26.97;37.46
60015;BME280;45867;52.480;6.056;2023-04-30T12:58:46;102310.00;;;26.51;37.84
60015;BME280;45867;52.480;6.056;2023-04-30T13:01:16;102300.66;;;26.03;38.65
60015;BME280;45867;52.480;6.056;2023-04-30T13:03:42;102307.75;;;25.96;38.65
60015;BME280;45867;52.480;6.056;2023-04-30T13:06:07;102301.59;;;26.32;39.55
60015;BME280;45867;52.480;6.056;2023-04-30T13:08:34;102291.94;;;25.56;42.60
60015;BME280;45867;52.480;6.056;2023-04-30T13:11:00;102286.06;;;26.20;38.89
60015;BME280;45867;52.480;6.056;2023-04-30T13:13:25;102295.13;;;26.24;38.65
60015;BME280;45867;52.480;6.056;2023-04-30T13:15:53;102272.97;;;26.71;37.01
60015;BME280;45867;52.480;6.056;2023-04-30T13:18:19;102284.75;;;26.51;37.93
60015;BME280;45867;52.480;6.056;2023-04-30T13:20:55;102281.66;;;25.28;40.80
60015;BME280;45867;52.480;6.056;2023-04-30T13:23:20;102266.97;;;23.58;44.71
60015;BME280;45867;52.480;6.056;2023-04-30T13:25:46;102262.91;;;24.64;44.12
60015;BME280;45867;52.480;6.056;2023-04-30T13:28:11;102274.25;;;24.10;43.98
60015;BME280;45867;52.480;6.056;2023-04-30T13:30:37;102267.84;;;24.62;46.99
60015;BME280;45867;52.480;6.056;2023-04-30T13:33:02;102271.31;;;24.71;43.82
60015;BME280;45867;52.480;6.056;2023-04-30T13:35:33;102263.34;;;24.27;43.87
60015;BME280;45867;52.480;6.056;2023-04-30T13:37:59;102236.06;;;24.71;41.97
60015;BME280;45867;52.480;6.056;2023-04-30T13:40:25;102251.09;;;25.19;43.31
60015;BME280;45867;52.480;6.056;2023-04-30T13:42:52;102254.06;;;24.75;43.19
60015;BME280;45867;52.480;6.056;2023-04-30T13:45:18;102230.47;;;25.60;43.21
60015;BME280;45867;52.480;6.056;2023-04-30T13:47:43;102236.69;;;24.97;41.83
60015;BME280;45867;52.480;6.056;2023-04-30T13:50:09;102238.41;;;24.81;42.24
60015;BME280;45867;52.480;6.056;2023-04-30T13:52:35;102243.19;;;25.26;42.88
60015;BME280;45867;52.480;6.056;2023-04-30T13:55:01;102246.81;;;24.88;41.59
60015;BME280;45867;52.480;6.056;2023-04-30T13:57:26;102217.84;;;23.30;43.92
60015;BME280;45867;52.480;6.056;2023-04-30T13:59:54;102222.97;;;21.94;49.65
60015;BME280;45867;52.480;6.056;2023-04-30T14:02:19;102229.94;;;21.42;53.49